Time;durP1;ratioP1;P1;durP2;ratioP2;P2;SDS_P1;SDS_P2;PMS_P1;PMS_P2;Temp;Humidity;BMP_temperature;BMP_pressure;BME280_temperature;BME280_humidity;BME280_pressure;Samples;Min_cycle;Max_cycle;Signal;HPM_P1;HPM_P2
2022/03/30 00:00:50;;;;;;;;;;;;;;;23.68;64.53;96394.48;569509;249;68749;-66
2022/03/30 00:03:18;;;;;;;;;;;;;;;23.68;64.96;96393.67;569512;249;63159;-66
2022/03/30 00:05:46;;;;;;;;;;;;;;;23.67;64.76;96392.89;569513;249;68596;-66
2022/03/30 00:08:14;;;;;;;;;;;;;;;23.66;64.99;96391.31;569581;249;68554;-66
2022/03/30 00:10:42;;;;;;;;;;;;;;;23.67;64.81;96390.20;569537;249;65385;-67
2022/03/30 00:13:09;;;;;;;;;;;;;;;23.66;65.13;96388.63;569524;249;66597;-66
2022/03/30 00:15:37;;;;;;;;;;;;;;;23.65;64.79;96389.73;569486;249;69138;-67
2022/03/30 00:18:04;;;;;;;;;;;;;;;23.64;64.72;96388.13;569506;249;65193;-67
2022/03/30 00:20:32;;;;;;;;;;;;;;;23.65;65.30;96384.38;575524;244;68831;-67
2022/03/30 00:22:59;;;;;;;;;;;;;;;23.65;65.23;96384.38;579963;244;66951;-67
2022/03/30 00:25:27;;;;;;;;;;;;;;;23.65;65.13;96389.73;579882;244;63412;-67
2022/03/30 00:27:54;;;;;;;;;;;;;;;23.64;64.95;96388.13;579903;244;68722;-67
2022/03/30 00:30:22;;;;;;;;;;;;;;;23.64;64.91;96388.13;579885;244;68600;-67
2022/03/30 00:32:50;;;;;;;;;;;;;;;23.63;65.50;96389.23;579879;244;63258;-66
2022/03/30 00:35:17;;;;;;;;;;;;;;;23.63;65.21;96385.77;579941;244;66489;-66
2022/03/30 00:37:45;;;;;;;;;;;;;;;23.63;65.32;96383.88;579877;244;66500;-66
2022/03/30 00:40:14;;;;;;;;;;;;;;;23.63;65.16;96389.23;579884;244;65387;-66
2022/03/30 00:42:41;;;;;;;;;;;;;;;23.61;65.16;96382.59;579879;244;69043;-66
2022/03/30 00:45:13;;;;;;;;;;;;;;;23.61;65.26;96377.22;579870;244;68730;-66
2022/03/30 00:47:41;;;;;;;;;;;;;;;23.61;66.01;96383.38;579930;244;63289;-66
2022/03/30 00:50:10;;;;;;;;;;;;;;;23.60;64.99;96375.62;579896;244;68823;-66
2022/03/30 00:52:38;;;;;;;;;;;;;;;23.60;65.46;96380.98;579878;244;68708;-66
2022/03/30 00:55:06;;;;;;;;;;;;;;;23.59;65.39;96379.41;579877;244;65871;-66
2022/03/30 00:57:34;;;;;;;;;;;;;;;23.58;65.00;96383.98;579870;244;68799;-66
2022/03/30 01:00:02;;;;;;;;;;;;;;;23.58;65.09;96388.56;579861;244;66666;-66
2022/03/30 01:02:30;;;;;;;;;;;;;;;23.59;65.30;96379.41;579928;244;66109;-66
2022/03/30 01:04:58;;;;;;;;;;;;;;;23.57;65.41;96374.36;579858;244;66613;-66
2022/03/30 01:07:25;;;;;;;;;;;;;;;23.57;65.32;96374.36;579883;244;66689;-66
2022/03/30 01:09:53;;;;;;;;;;;;;;;23.58;65.55;96370.58;579894;244;65517;-66
2022/03/30 01:12:21;;;;;;;;;;;;;;;23.57;66.05;96366.31;579851;244;68791;-66
2022/03/30 01:14:48;;;;;;;;;;;;;;;23.56;65.41;96370.08;579931;244;68628;-66
2022/03/30 01:17:16;;;;;;;;;;;;;;;23.56;66.00;96364.71;579879;244;65062;-66
2022/03/30 01:19:43;;;;;;;;;;;;;;;23.56;66.54;96366.61;579873;244;66716;-66
2022/03/30 01:22:11;;;;;;;;;;;;;;;23.55;65.34;96365.81;579935;244;66086;-66
2022/03/30 01:24:38;;;;;;;;;;;;;;;23.54;65.20;96364.21;579878;244;63252;-66
2022/03/30 01:27:06;;;;;;;;;;;;;;;23.55;65.08;96367.71;579955;244;66310;-67
2022/03/30 01:32:26;;;;;;;;;;;;;;;23.53;65.21;96365.32;579920;244;63120;-66
2022/03/30 01:34:55;;;;;;;;;;;;;;;23.53;66.50;96370.69;579906;244;66324;-66
2022/03/30 01:37:23;;;;;;;;;;;;;;;23.53;65.42;96359.17;579620;244;68516;-66
2022/03/30 01:39:51;;;;;;;;;;;;;;;23.52;66.36;96357.56;579918;244;65375;-66
2022/03/30 01:42:18;;;;;;;;;;;;;;;23.53;66.29;96369.89;579944;244;68732;-66
2022/03/30 01:44:46;;;;;;;;;;;;;;;23.51;65.75;96362.14;579884;244;68577;-66
2022/03/30 01:47:13;;;;;;;;;;;;;;;23.51;65.99;96367.50;579912;244;65268;-66
2022/03/30 01:49:41;;;;;;;;;;;;;;;23.51;65.60;96362.14;579840;244;68472;-66
2022/03/30 01:52:09;;;;;;;;;;;;;;;23.51;65.73;96361.35;579893;244;68716;-66
2022/03/30 01:54:38;;;;;;;;;;;;;;;23.50;65.17;96368.61;579904;244;65480;-66
2022/03/30 01:57:06;;;;;;;;;;;;;;;23.49;66.23;96367.83;579887;244;66831;-66
2022/03/30 01:59:34;;;;;;;;;;;;;;;23.49;66.89;96370.50;579850;244;68777;-66
2022/03/30 02:02:02;;;;;;;;;;;;;;;23.50;68.26;96371.30;579868;244;65586;-66
2022/03/30 02:04:30;;;;;;;;;;;;;;;23.49;66.66;96369.72;579857;244;66609;-65
2022/03/30 02:06:58;;;;;;;;;;;;;;;23.50;68.06;96373.97;579904;244;68934;-65
2022/03/30 02:09:25;;;;;;;;;;;;;;;23.48;65.97;96373.48;579932;244;65277;-65
2022/03/30 02:11:54;;;;;;;;;;;;;;;23.47;66.41;96369.22;579884;244;66511;-65
2022/03/30 02:14:22;;;;;;;;;;;;;;;23.47;67.18;96371.90;579887;244;68791;-65
2022/03/30 02:16:49;;;;;;;;;;;;;;;23.46;66.86;96370.30;579844;244;65602;-65
2022/03/30 02:19:17;;;;;;;;;;;;;;;23.46;66.46;96370.30;579144;244;68785;-65
2022/03/30 02:21:44;;;;;;;;;;;;;;;23.47;67.47;96361.17;569578;249;68712;-65
2022/03/30 02:24:12;;;;;;;;;;;;;;;23.46;68.00;96356.89;569508;249;62960;-65
2022/03/30 02:26:40;;;;;;;;;;;;;;;23.45;68.12;96363.36;569502;249;68811;-65
2022/03/30 02:29:07;;;;;;;;;;;;;;;23.44;66.68;96359.89;569506;249;68916;-65
2022/03/30 02:31:35;;;;;;;;;;;;;;;23.44;66.04;96364.46;569507;249;67211;-65
2022/03/30 02:34:03;;;;;;;;;;;;;;;23.43;66.14;96360.97;569537;249;66770;-65
2022/03/30 02:36:30;;;;;;;;;;;;;;;23.43;65.70;96360.17;569546;249;68651;-65
2022/03/30 02:38:58;;;;;;;;;;;;;;;23.43;68.04;96363.65;569491;249;65310;-65
2022/03/30 02:41:26;;;;;;;;;;;;;;;23.43;66.27;96357.50;569509;249;68991;-65
2022/03/30 02:43:54;;;;;;;;;;;;;;;23.42;65.44;96364.75;569456;249;68993;-65
2022/03/30 02:46:21;;;;;;;;;;;;;;;23.42;65.97;96369.33;569553;249;65359;-65
2022/03/30 02:48:49;;;;;;;;;;;;;;;23.41;65.62;96375.80;569494;249;68887;-65
2022/03/30 02:51:16;;;;;;;;;;;;;;;23.40;65.49;96376.88;569509;249;68705;-65
2022/03/30 02:53:44;;;;;;;;;;;;;;;23.40;65.57;96366.94;569503;249;65327;-67
2022/03/30 02:56:11;;;;;;;;;;;;;;;23.40;67.68;96379.55;569494;249;68753;-67
2022/03/30 02:58:39;;;;;;;;;;;;;;;23.39;65.79;96376.09;569484;249;68682;-65
2022/03/30 03:01:06;;;;;;;;;;;;;;;23.40;66.62;96382.23;569532;249;65289;-65
2022/03/30 03:03:34;;;;;;;;;;;;;;;23.38;66.93;96379.87;569528;249;68413;-67
2022/03/30 03:06:01;;;;;;;;;;;;;;;23.39;65.17;96388.70;569507;249;68728;-65
2022/03/30 03:08:28;;;;;;;;;;;;;;;23.38;65.04;96384.42;569474;249;65291;-65
2022/03/30 03:10:57;;;;;;;;;;;;;;;23.38;68.32;96379.87;569463;249;69027;-65
2022/03/30 03:13:25;;;;;;;;;;;;;;;23.39;68.56;96380.66;569532;249;69651;-65
2022/03/30 03:15:52;;;;;;;;;;;;;;;23.36;66.07;96373.22;569492;249;65523;-65
2022/03/30 03:18:20;;;;;;;;;;;;;;;23.38;67.82;96371.01;569497;249;66615;-65
2022/03/30 03:20:48;;;;;;;;;;;;;;;23.36;65.55;96375.91;576640;244;66532;-65
2022/03/30 03:23:17;;;;;;;;;;;;;;;23.37;66.30;96372.12;579886;244;65337;-65
2022/03/30 03:25:45;;;;;;;;;;;;;;;23.35;66.23;96372.41;579907;244;68862;-67
2022/03/30 03:28:13;;;;;;;;;;;;;;;23.35;65.96;96367.05;579883;244;68722;-67
2022/03/30 03:30:41;;;;;;;;;;;;;;;23.34;66.02;96367.36;579877;244;62951;-67
2022/03/30 03:33:09;;;;;;;;;;;;;;;23.34;67.08;96365.47;579835;244;66680;-67
2022/03/30 03:35:37;;;;;;;;;;;;;;;23.34;65.62;96362.00;579864;244;66487;-67
2022/03/30 03:38:05;;;;;;;;;;;;;;;23.34;66.81;96372.72;579916;244;63187;-67
2022/03/30 03:40:33;;;;;;;;;;;;;;;23.33;66.34;96371.94;579895;244;66732;-67
2022/03/30 03:43:01;;;;;;;;;;;;;;;23.34;68.54;96378.09;579911;244;66835;-67
2022/03/30 03:45:28;;;;;;;;;;;;;;;23.33;66.95;96371.15;579885;244;65359;-67
2022/03/30 03:47:56;;;;;;;;;;;;;;;23.31;65.61;96376.80;579900;244;66661;-67
2022/03/30 03:50:26;;;;;;;;;;;;;;;23.31;67.55;96374.12;579893;244;68515;-67
2022/03/30 03:52:54;;;;;;;;;;;;;;;23.31;68.78;96368.75;579933;244;65369;-67
2022/03/30 03:55:22;;;;;;;;;;;;;;;23.31;67.21;96370.65;579906;244;68822;-67
2022/03/30 03:57:50;;;;;;;;;;;;;;;23.29;65.13;96370.94;579870;244;68997;-67
2022/03/30 04:00:18;;;;;;;;;;;;;;;23.30;68.08;96369.05;579858;244;65341;-67
2022/03/30 04:02:46;;;;;;;;;;;;;;;23.27;66.54;96378.48;579845;244;68798;-67
2022/03/30 04:05:14;;;;;;;;;;;;;;;23.28;66.19;96373.94;579823;244;68615;-67
2022/03/30 04:07:42;;;;;;;;;;;;;;;23.28;66.28;96374.72;579873;244;65607;-67
2022/03/30 04:10:10;;;;;;;;;;;;;;;23.28;67.07;96373.94;579850;244;68885;-66
2022/03/30 04:12:39;;;;;;;;;;;;;;;23.26;66.33;96372.33;579824;244;68800;-67
2022/03/30 04:15:07;;;;;;;;;;;;;;;23.26;66.64;96372.33;579902;244;65496;-67
2022/03/30 04:17:34;;;;;;;;;;;;;;;23.26;65.57;96372.33;579848;244;68689;-67
2022/03/30 04:20:02;;;;;;;;;;;;;;;23.26;66.02;96376.91;579756;244;68754;-67
2022/03/30 04:22:30;;;;;;;;;;;;;;;23.25;67.11;96362.71;579866;244;65447;-67
2022/03/30 04:24:57;;;;;;;;;;;;;;;23.25;66.81;96361.92;579911;244;66727;-67
2022/03/30 04:27:25;;;;;;;;;;;;;;;23.25;66.13;96361.92;579921;244;66632;-67
2022/03/30 04:29:52;;;;;;;;;;;;;;;23.24;66.86;96363.81;579880;244;63372;-67
2022/03/30 04:32:20;;;;;;;;;;;;;;;23.25;68.90;96368.08;579866;244;66635;-67
2022/03/30 04:34:47;;;;;;;;;;;;;;;23.23;67.12;96361.42;579888;244;68830;-67
2022/03/30 04:37:15;;;;;;;;;;;;;;;23.24;67.36;96374.54;579887;244;65694;-67
2022/03/30 04:39:43;;;;;;;;;;;;;;;23.24;66.21;96371.05;579959;244;68699;-67
2022/03/30 04:42:10;;;;;;;;;;;;;;;23.23;65.12;96366.78;579890;244;68699;-66
2022/03/30 04:44:38;;;;;;;;;;;;;;;23.22;66.09;96368.68;579870;244;65664;-67
2022/03/30 04:47:05;;;;;;;;;;;;;;;23.21;66.48;96364.39;579880;244;66669;-67
2022/03/30 04:49:33;;;;;;;;;;;;;;;23.21;66.96;96367.08;579890;244;66601;-67
2022/03/30 04:52:00;;;;;;;;;;;;;;;23.20;65.34;96373.54;579942;244;63202;-67
2022/03/30 04:54:28;;;;;;;;;;;;;;;23.20;65.78;96373.54;579905;244;66625;-67
2022/03/30 04:56:55;;;;;;;;;;;;;;;23.19;65.58;96369.28;579892;244;66713;-67
2022/03/30 04:59:23;;;;;;;;;;;;;;;23.19;66.54;96369.28;579876;244;63293;-67
2022/03/30 05:01:50;;;;;;;;;;;;;;;23.19;65.96;96371.97;579862;244;66688;-68
2022/03/30 05:04:19;;;;;;;;;;;;;;;23.18;65.46;96373.03;579956;244;66368;-66
2022/03/30 05:06:46;;;;;;;;;;;;;;;23.18;65.29;96369.57;579953;244;65356;-66
2022/03/30 05:09:14;;;;;;;;;;;;;;;23.18;66.80;96365.00;579899;244;68832;-66
2022/03/30 05:11:41;;;;;;;;;;;;;;;23.18;65.88;96365.00;579845;244;66807;-66
2022/03/30 05:14:09;;;;;;;;;;;;;;;23.17;65.98;96374.14;579889;244;63373;-66
2022/03/30 05:16:36;;;;;;;;;;;;;;;23.16;66.96;96372.56;579877;244;66720;-66
2022/03/30 05:19:04;;;;;;;;;;;;;;;23.15;66.08;96375.53;579918;244;69116;-66
2022/03/30 05:21:31;;;;;;;;;;;;;;;23.14;66.39;96377.42;579887;244;65421;-66
2022/03/30 05:23:59;;;;;;;;;;;;;;;23.12;66.78;96374.25;579884;244;68782;-66
2022/03/30 05:26:28;;;;;;;;;;;;;;;23.13;66.42;96372.35;579878;244;68286;-66
2022/03/30 05:28:56;;;;;;;;;;;;;;;23.13;66.25;96375.03;579895;244;65327;-66
2022/03/30 05:31:23;;;;;;;;;;;;;;;23.13;66.96;96366.99;579938;244;66220;-66
2022/03/30 05:33:52;;;;;;;;;;;;;;;23.11;65.64;96364.63;579881;244;68573;-66
2022/03/30 05:36:19;;;;;;;;;;;;;;;23.12;66.65;96366.20;579848;244;64110;-66
2022/03/30 05:38:48;;;;;;;;;;;;;;;23.12;66.71;96368.88;579845;244;68850;-66
2022/03/30 05:41:16;;;;;;;;;;;;;;;23.11;66.46;96369.17;579919;244;68534;-66
2022/03/30 05:43:44;;;;;;;;;;;;;;;23.10;66.88;96368.38;579954;244;65569;-66
2022/03/30 05:46:11;;;;;;;;;;;;;;;23.11;66.20;96363.81;579895;244;68486;-67
2022/03/30 05:48:39;;;;;;;;;;;;;;;23.09;67.32;96364.13;579806;244;68760;-66
2022/03/30 05:51:08;;;;;;;;;;;;;;;23.10;66.44;96362.23;579841;244;65175;-67
2022/03/30 05:53:35;;;;;;;;;;;;;;;23.08;67.43;96362.55;579897;244;66801;-67
2022/03/30 05:56:03;;;;;;;;;;;;;;;23.09;66.75;96374.84;579859;244;68631;-66
2022/03/30 05:58:31;;;;;;;;;;;;;;;23.08;67.57;96367.09;579239;244;65316;-68
2022/03/30 06:00:58;;;;;;;;;;;;;;;23.07;67.73;96368.98;579834;244;68823;-68
2022/03/30 06:03:26;;;;;;;;;;;;;;;23.06;66.82;96361.27;579888;244;68590;-69
2022/03/30 06:05:53;;;;;;;;;;;;;;;23.07;66.85;96357.48;579704;244;63380;-67
2022/03/30 06:08:21;;;;;;;;;;;;;;;23.04;67.07;96361.55;581504;241;66328;-68
2022/03/30 06:10:50;;;;;;;;;;;;;;;23.06;66.64;96363.95;586016;242;66603;-70
2022/03/30 06:13:17;;;;;;;;;;;;;;;23.06;66.48;96353.23;585993;242;63139;-70
2022/03/30 06:15:45;;;;;;;;;;;;;;;23.05;66.24;96355.09;586015;242;66632;-69
2022/03/30 06:18:13;;;;;;;;;;;;;;;23.05;66.18;96357.77;586074;242;66353;-69
2022/03/30 06:20:41;;;;;;;;;;;;;;;23.06;66.10;96350.55;585962;242;65548;-68
2022/03/30 06:23:08;;;;;;;;;;;;;;;23.04;67.63;96342.80;586137;242;68644;-68
2022/03/30 06:25:36;;;;;;;;;;;;;;;23.03;66.65;96339.33;586039;242;69122;-68
2022/03/30 06:28:04;;;;;;;;;;;;;;;23.01;66.81;96341.50;586056;242;63235;-66
2022/03/30 06:30:31;;;;;;;;;;;;;;;23.00;66.04;96334.56;586112;242;69037;-70
2022/03/30 06:32:59;;;;;;;;;;;;;;;23.01;66.05;96343.39;586060;242;68714;-68
2022/03/30 06:35:27;;;;;;;;;;;;;;;23.01;60.27;96344.19;586061;242;65430;-68
2022/03/30 06:37:54;;;;;;;;;;;;;;;22.99;65.69;96341.00;586099;242;66650;-68
2022/03/30 06:40:22;;;;;;;;;;;;;;;23.00;66.56;96339.14;586055;242;66757;-68
2022/03/30 06:42:53;;;;;;;;;;;;;;;22.98;66.55;96344.78;586067;242;65288;-70
2022/03/30 06:45:19;;;;;;;;;;;;;;;22.98;67.25;96342.11;585966;242;66000;-67
2022/03/30 06:47:47;;;;;;;;;;;;;;;23.00;66.26;96347.18;586014;242;66683;-68
2022/03/30 06:50:17;;;;;;;;;;;;;;;23.00;66.53;96347.97;586091;242;65330;-67
2022/03/30 06:52:44;;;;;;;;;;;;;;;23.02;64.83;96351.12;586029;242;69076;-65
2022/03/30 06:55:12;;;;;;;;;;;;;;;23.02;66.02;96339.61;585999;242;68902;-61
2022/03/30 06:57:40;;;;;;;;;;;;;;;23.03;64.45;96346.58;585929;242;63214;-67
2022/03/30 07:00:08;;;;;;;;;;;;;;;23.03;67.42;96347.36;586046;242;66442;-67
2022/03/30 07:02:35;;;;;;;;;;;;;;;23.02;64.51;96344.97;586057;242;68771;-65
2022/03/30 07:05:03;;;;;;;;;;;;;;;23.03;64.64;96357.30;584978;242;63164;-53
2022/03/30 07:10:16;;;;;;;;;;;;;;;23.03;66.05;96349.25;586009;242;68827;-70
2022/03/30 07:12:45;;;;;;;;;;;;;;;23.04;65.97;96348.15;586071;242;65138;-66
2022/03/30 07:15:13;;;;;;;;;;;;;;;23.03;64.86;96342.00;586093;242;66745;-66
2022/03/30 07:17:45;;;;;;;;;;;;;;;23.05;65.45;96344.37;586062;242;68754;-66
2022/03/30 07:20:14;;;;;;;;;;;;;;;23.06;63.75;96337.94;585840;242;66192;-65
2022/03/30 07:22:42;;;;;;;;;;;;;;;23.09;66.87;96328.50;586101;242;68892;-65
2022/03/30 07:25:10;;;;;;;;;;;;;;;23.09;64.85;96331.18;586000;242;69386;-66
2022/03/30 07:27:39;;;;;;;;;;;;;;;23.10;68.02;96330.86;586046;242;65341;-66
2022/03/30 07:30:08;;;;;;;;;;;;;;;23.11;66.72;96331.65;586149;242;68868;-65
2022/03/30 07:32:36;;;;;;;;;;;;;;;23.10;64.57;96336.22;586076;242;68565;-66
2022/03/30 07:35:04;;;;;;;;;;;;;;;23.11;64.90;96334.33;586063;242;65605;-64
2022/03/30 07:37:31;;;;;;;;;;;;;;;23.11;65.32;96334.33;586000;242;68615;-65
2022/03/30 07:39:59;;;;;;;;;;;;;;;23.12;67.47;96336.72;586045;242;67165;-71
2022/03/30 07:42:27;;;;;;;;;;;;;;;23.11;64.71;96332.47;586170;242;66321;-76
2022/03/30 07:44:54;;;;;;;;;;;;;;;23.11;66.07;96332.47;586059;242;68695;-71
2022/03/30 07:47:22;;;;;;;;;;;;;;;23.14;66.81;96331.08;586078;242;66572;-70
2022/03/30 07:49:50;;;;;;;;;;;;;;;23.14;66.78;96329.18;586089;242;64631;-69
2022/03/30 07:52:18;;;;;;;;;;;;;;;23.14;65.60;96326.50;586035;242;68876;-69
2022/03/30 07:54:46;;;;;;;;;;;;;;;23.16;67.92;96323.50;586044;242;68774;-68
2022/03/30 07:57:15;;;;;;;;;;;;;;;23.15;65.11;96317.36;586084;242;62964;-72
2022/03/30 07:59:43;;;;;;;;;;;;;;;23.16;66.82;96323.50;585936;242;66448;-73
2022/03/30 08:02:11;;;;;;;;;;;;;;;23.16;66.20;96324.32;586082;242;69053;-68
2022/03/30 08:04:39;;;;;;;;;;;;;;;23.16;66.55;96331.55;586042;242;63058;-68
2022/03/30 08:07:06;;;;;;;;;;;;;;;23.17;66.64;96325.89;586042;242;66887;-69
2022/03/30 08:09:34;;;;;;;;;;;;;;;23.17;66.82;96323.22;584748;242;66651;-68
2022/03/30 08:12:01;;;;;;;;;;;;;;;23.17;65.96;96327.79;586083;242;63260;-69
2022/03/30 08:14:31;;;;;;;;;;;;;;;23.16;65.47;96321.64;586083;242;70998;-70
2022/03/30 08:17:00;;;;;;;;;;;;;;;23.17;65.22;96320.53;586106;242;68779;-70
2022/03/30 08:19:28;;;;;;;;;;;;;;;23.17;66.05;96315.17;585969;242;65299;-70
2022/03/30 08:24:46;;;;;;;;;;;;;;;23.17;65.60;96304.45;586120;242;68659;-69
2022/03/30 08:27:10;;;;;;;;;;;;;;;23.18;65.91;96311.39;585908;242;65362;-70
2022/03/30 08:29:38;;;;;;;;;;;;;;;23.19;65.89;96312.17;585980;242;68808;-71
2022/03/30 08:32:06;;;;;;;;;;;;;;;23.19;65.32;96304.13;586077;242;66535;-71
2022/03/30 08:34:33;;;;;;;;;;;;;;;23.19;65.53;96309.49;586049;242;63001;-70
2022/03/30 08:37:01;;;;;;;;;;;;;;;23.19;65.88;96307.63;586119;242;66224;-70
2022/03/30 08:39:29;;;;;;;;;;;;;;;23.20;67.36;96301.16;586028;242;66342;-71
2022/03/30 08:41:57;;;;;;;;;;;;;;;23.20;66.23;96311.89;586006;242;65340;-71
2022/03/30 08:44:25;;;;;;;;;;;;;;;23.21;68.00;96301.95;586085;242;68695;-69
2022/03/30 08:46:53;;;;;;;;;;;;;;;23.21;65.77;96299.27;586128;242;68459;-68
2022/03/30 08:49:20;;;;;;;;;;;;;;;23.21;65.89;96300.06;586090;242;65356;-69
2022/03/30 08:51:49;;;;;;;;;;;;;;;23.20;66.02;96303.84;586086;242;68794;-69
2022/03/30 08:54:18;;;;;;;;;;;;;;;23.21;65.86;96309.99;586058;242;69096;-69
2022/03/30 08:56:46;;;;;;;;;;;;;;;23.20;65.72;96295.80;586031;242;65201;-69
2022/03/30 08:59:18;;;;;;;;;;;;;;;23.22;66.20;96295.52;586038;240;68972;-70
2022/03/30 09:01:48;;;;;;;;;;;;;;;23.21;65.44;96288.55;585956;242;68809;-70
2022/03/30 09:04:16;;;;;;;;;;;;;;;23.20;65.78;96281.61;586102;242;65473;-67
2022/03/30 09:06:45;;;;;;;;;;;;;;;23.20;65.51;96277.04;586053;242;69710;-73
2022/03/30 09:09:14;;;;;;;;;;;;;;;23.21;65.91;96281.30;586064;242;68523;-69
2022/03/30 09:11:53;;;;;;;;;;;;;;;23.20;65.54;96277.04;586008;242;63256;-70
2022/03/30 09:14:13;;;;;;;;;;;;;;;23.21;65.79;96267.11;585486;242;66419;-71
2022/03/30 09:16:42;;;;;;;;;;;;;;;23.21;65.17;96275.15;586084;242;68602;-70
2022/03/30 09:19:14;;;;;;;;;;;;;;;23.20;65.35;96269.00;585608;242;65473;-71
2022/03/30 09:21:42;;;;;;;;;;;;;;;23.21;64.76;96267.11;575425;246;66606;-67
2022/03/30 09:24:10;;;;;;;;;;;;;;;23.21;65.01;96264.42;575408;246;68801;-66
2022/03/30 09:26:38;;;;;;;;;;;;;;;23.21;65.42;96257.17;575490;246;65453;-71
2022/03/30 09:29:07;;;;;;;;;;;;;;;23.21;66.34;96257.17;575402;244;68955;-71
2022/03/30 09:31:36;;;;;;;;;;;;;;;23.20;65.65;96252.92;575461;246;68625;-70
2022/03/30 09:34:04;;;;;;;;;;;;;;;23.21;65.83;96251.81;575458;246;63404;-71
2022/03/30 09:36:33;;;;;;;;;;;;;;;23.22;66.46;96253.41;575491;246;68552;-71
2022/03/30 09:39:01;;;;;;;;;;;;;;;23.20;64.78;96249.45;575433;246;68339;-72
2022/03/30 09:41:31;;;;;;;;;;;;;;;23.20;65.79;96244.09;575456;246;65390;-71
2022/03/30 09:44:03;;;;;;;;;;;;;;;23.21;65.51;96235.73;575003;246;68404;-70
2022/03/30 09:46:31;;;;;;;;;;;;;;;23.22;66.21;96236.54;575458;246;68699;-64
2022/03/30 09:48:59;;;;;;;;;;;;;;;23.20;63.34;96234.16;575483;246;65300;-70
2022/03/30 09:51:29;;;;;;;;;;;;;;;23.20;63.88;96233.37;575497;246;66241;-70
2022/03/30 09:53:55;;;;;;;;;;;;;;;23.21;64.67;96234.94;575419;244;68474;-70
2022/03/30 09:56:24;;;;;;;;;;;;;;;23.21;64.11;96229.58;575566;246;63338;-70
2022/03/30 09:58:53;;;;;;;;;;;;;;;23.21;64.50;96241.09;575505;246;68476;-71
2022/03/30 10:01:22;;;;;;;;;;;;;;;23.21;64.84;96230.36;575188;245;66236;-63
2022/03/30 10:03:51;;;;;;;;;;;;;;;23.21;64.03;96246.45;575487;246;65345;-63
2022/03/30 10:06:20;;;;;;;;;;;;;;;23.21;64.88;96254.48;575552;246;66714;-63
2022/03/30 10:08:49;;;;;;;;;;;;;;;23.21;64.31;96245.66;575403;246;69114;-64
2022/03/30 10:11:17;;;;;;;;;;;;;;;23.21;64.18;96251.81;575493;246;65584;-70
2022/03/30 10:13:46;;;;;;;;;;;;;;;23.20;64.71;96252.92;575399;246;66668;-70
2022/03/30 10:16:17;;;;;;;;;;;;;;;23.20;65.74;96238.73;575313;246;68831;-72
2022/03/30 10:18:44;;;;;;;;;;;;;;;23.20;64.78;96228.80;575278;246;65426;-71
2022/03/30 10:21:13;;;;;;;;;;;;;;;23.21;64.79;96230.36;575464;245;68818;-69
2022/03/30 10:23:42;;;;;;;;;;;;;;;23.19;62.98;96232.58;575411;246;68629;-70
2022/03/30 10:26:17;;;;;;;;;;;;;;;23.20;65.86;96218.07;575501;246;63040;-71
2022/03/30 10:28:46;;;;;;;;;;;;;;;23.20;64.07;96212.71;575119;245;68700;-72
2022/03/30 10:31:17;;;;;;;;;;;;;;;23.19;64.41;96208.45;575373;244;49791;-73
2022/03/30 10:33:44;;;;;;;;;;;;;;;23.18;62.96;96204.17;575334;245;65397;-73
2022/03/30 10:36:22;;;;;;;;;;;;;;;23.19;65.13;96205.77;575451;246;66853;-73
2022/03/30 10:39:08;;;;;;;;;;;;;;;23.17;64.23;96202.59;575406;246;66536;-70
2022/03/30 10:41:49;;;;;;;;;;;;;;;23.17;63.34;96199.92;575435;246;62952;-71
2022/03/30 10:44:22;;;;;;;;;;;;;;;23.17;63.87;96191.09;575443;246;68880;-75
2022/03/30 10:46:53;;;;;;;;;;;;;;;23.16;62.38;96190.30;573944;246;70162;-68
2022/03/30 10:49:40;;;;;;;;;;;;;;;23.16;62.19;96179.59;575167;245;63031;-71
2022/03/30 10:52:28;;;;;;;;;;;;;;;23.16;62.39;96194.84;575445;246;66601;-66
2022/03/30 10:55:16;;;;;;;;;;;;;;;23.14;61.37;96175.63;575520;246;68658;-68
2022/03/30 10:57:44;;;;;;;;;;;;;;;23.15;61.50;96169.16;574525;246;65724;-66
2022/03/30 11:00:19;;;;;;;;;;;;;;;23.15;63.01;96171.84;575198;246;68816;-66
2022/03/30 11:02:47;;;;;;;;;;;;;;;23.14;62.36;96170.27;575431;246;66733;-66
2022/03/30 11:05:16;;;;;;;;;;;;;;;23.13;61.65;96164.09;575449;246;65495;-66
2022/03/30 11:07:44;;;;;;;;;;;;;;;23.13;61.99;96161.41;575415;246;68803;-68
2022/03/30 11:10:21;;;;;;;;;;;;;;;23.13;61.40;96163.30;575451;246;68685;-66
2022/03/30 11:13:02;;;;;;;;;;;;;;;23.13;63.53;96156.05;575481;246;65374;-66
2022/03/30 11:15:25;;;;;;;;;;;;;;;23.14;61.96;96149.61;575116;245;66575;-66
2022/03/30 11:17:55;;;;;;;;;;;;;;;23.14;60.69;96148.83;575478;246;68495;-65
2022/03/30 11:20:24;;;;;;;;;;;;;;;23.15;62.60;96153.08;580790;242;66415;-64
2022/03/30 11:22:51;;;;;;;;;;;;;;;23.14;61.72;96146.93;586072;242;66776;-72
2022/03/30 11:25:20;;;;;;;;;;;;;;;23.15;63.22;96148.50;586071;242;68927;-69
2022/03/30 11:28:01;;;;;;;;;;;;;;;23.17;61.08;96145.53;586065;242;64992;-69
2022/03/30 11:30:32;;;;;;;;;;;;;;;23.17;61.35;96145.53;586086;242;68914;-70
2022/03/30 11:33:01;;;;;;;;;;;;;;;23.16;61.33;96136.70;585962;242;68777;-65
2022/03/30 11:35:30;;;;;;;;;;;;;;;23.16;60.98;96138.56;585006;242;65332;-71
2022/03/30 11:38:01;;;;;;;;;;;;;;;23.16;60.79;96138.56;585946;242;68684;-68
2022/03/30 11:40:29;;;;;;;;;;;;;;;23.16;59.90;96131.34;586027;242;68609;-68
2022/03/30 11:42:58;;;;;;;;;;;;;;;23.16;60.25;96128.66;586068;242;65396;-69
2022/03/30 11:45:27;;;;;;;;;;;;;;;23.16;60.15;96128.66;586088;242;67143;-68
2022/03/30 11:47:56;;;;;;;;;;;;;;;23.17;60.85;96119.51;586023;242;68473;-68
2022/03/30 11:50:30;;;;;;;;;;;;;;;23.16;60.07;96120.62;586072;242;65351;-68
2022/03/30 11:53:00;;;;;;;;;;;;;;;23.16;60.05;96109.08;586075;242;68900;-69
2022/03/30 11:55:29;;;;;;;;;;;;;;;23.17;60.20;96111.47;586067;242;68745;-68
2022/03/30 11:57:57;;;;;;;;;;;;;;;23.16;59.58;96104.54;586049;242;65489;-69
2022/03/30 12:00:25;;;;;;;;;;;;;;;23.17;59.71;96100.75;586091;242;68722;-69
2022/03/30 12:02:54;;;;;;;;;;;;;;;23.19;59.39;96103.11;586032;242;68577;-69
2022/03/30 12:05:22;;;;;;;;;;;;;;;23.18;58.78;96105.00;586048;242;65378;-68
2022/03/30 12:07:54;;;;;;;;;;;;;;;23.18;59.27;96096.17;586080;242;66391;-68
2022/03/30 12:10:22;;;;;;;;;;;;;;;23.19;59.12;96103.92;585995;242;68797;-68
2022/03/30 12:12:50;;;;;;;;;;;;;;;23.20;59.30;96099.34;586020;242;65511;-69
2022/03/30 12:15:20;;;;;;;;;;;;;;;23.19;59.79;96093.20;585902;242;66400;-70
2022/03/30 12:17:53;;;;;;;;;;;;;;;23.20;59.42;96088.63;585814;242;66404;-70
2022/03/30 12:20:25;;;;;;;;;;;;;;;23.22;58.65;96091.80;585954;240;66328;-69
2022/03/30 12:22:58;;;;;;;;;;;;;;;23.21;59.56;96090.20;586043;242;66718;-69
2022/03/30 12:25:27;;;;;;;;;;;;;;;23.22;59.99;96097.16;586046;242;66492;-68
2022/03/30 12:27:56;;;;;;;;;;;;;;;23.22;60.74;96097.95;586053;240;65396;-69
2022/03/30 12:30:24;;;;;;;;;;;;;;;23.22;60.16;96097.95;585994;242;68688;-69
2022/03/30 12:32:52;;;;;;;;;;;;;;;23.22;60.02;96097.95;586052;242;68406;-69
2022/03/30 12:35:20;;;;;;;;;;;;;;;23.24;59.80;96105.66;586005;242;62991;-69
2022/03/30 12:37:49;;;;;;;;;;;;;;;23.22;59.68;96092.58;585844;242;68827;-69
2022/03/30 12:40:18;;;;;;;;;;;;;;;23.22;59.67;96097.95;585937;242;66944;-69
2022/03/30 12:42:52;;;;;;;;;;;;;;;23.22;59.81;96087.22;586112;242;46803;-70
2022/03/30 12:45:21;;;;;;;;;;;;;;;23.22;59.89;96087.22;585779;242;68694;-70
2022/03/30 12:47:51;;;;;;;;;;;;;;;23.22;59.72;96087.22;586059;242;68740;-69
2022/03/30 12:50:24;;;;;;;;;;;;;;;23.24;59.11;96090.39;586196;242;45161;-70
2022/03/30 12:52:54;;;;;;;;;;;;;;;23.24;58.43;96085.03;585830;242;48357;-68
2022/03/30 12:55:28;;;;;;;;;;;;;;;23.24;59.33;96079.67;585974;242;66543;-69
2022/03/30 12:58:16;;;;;;;;;;;;;;;23.25;58.57;96083.92;585896;242;65497;-67
2022/03/30 13:00:45;;;;;;;;;;;;;;;23.25;59.21;96083.92;586046;242;68553;-69
2022/03/30 13:03:13;;;;;;;;;;;;;;;23.25;59.56;96078.56;586096;242;68567;-68